sensor_id;sensor_type;location;lat;lon;timestamp;temperature;humidity
32895;DHT22;19251;49.484;8.260;2023-07-20T00:03:11;24.10;6.50
32895;DHT22;19251;49.484;8.260;2023-07-20T00:08:19;24.10;6.70
32895;DHT22;19251;49.484;8.260;2023-07-20T00:13:21;23.90;6.90
32895;DHT22;19251;49.484;8.260;2023-07-20T00:18:23;23.80;7.00
32895;DHT22;19251;49.484;8.260;2023-07-20T00:23:26;23.70;7.00
32895;DHT22;19251;49.484;8.260;2023-07-20T00:28:28;23.50;7.30
32895;DHT22;19251;49.484;8.260;2023-07-20T00:33:30;23.00;7.40
32895;DHT22;19251;49.484;8.260;2023-07-20T00:38:33;22.90;7.50
32895;DHT22;19251;49.484;8.260;2023-07-20T00:43:35;23.00;8.40
32895;DHT22;19251;49.484;8.260;2023-07-20T00:48:37;22.80;8.70
32895;DHT22;19251;49.484;8.260;2023-07-20T00:53:40;22.70;8.90
32895;DHT22;19251;49.484;8.260;2023-07-20T00:58:42;22.70;8.90
32895;DHT22;19251;49.484;8.260;2023-07-20T01:03:44;22.70;9.30
32895;DHT22;19251;49.484;8.260;2023-07-20T01:13:50;22.40;9.50
32895;DHT22;19251;49.484;8.260;2023-07-20T01:18:52;22.50;9.90
32895;DHT22;19251;49.484;8.260;2023-07-20T01:24:30;22.40;9.90
32895;DHT22;19251;49.484;8.260;2023-07-20T01:35:14;22.40;10.20
32895;DHT22;19251;49.484;8.260;2023-07-20T01:40:20;22.30;9.70
32895;DHT22;19251;49.484;8.260;2023-07-20T01:45:24;22.30;9.90
32895;DHT22;19251;49.484;8.260;2023-07-20T01:50:26;22.30;10.50
32895;DHT22;19251;49.484;8.260;2023-07-20T01:55:28;22.20;10.40
32895;DHT22;19251;49.484;8.260;2023-07-20T02:00:30;22.20;10.60
32895;DHT22;19251;49.484;8.260;2023-07-20T02:05:33;22.20;10.40
32895;DHT22;19251;49.484;8.260;2023-07-20T02:10:35;22.10;10.40
32895;DHT22;19251;49.484;8.260;2023-07-20T02:15:38;21.80;10.70
32895;DHT22;19251;49.484;8.260;2023-07-20T02:20:41;21.90;10.80
32895;DHT22;19251;49.484;8.260;2023-07-20T02:25:43;21.50;10.70
32895;DHT22;19251;49.484;8.260;2023-07-20T02:30:46;21.50;11.60
32895;DHT22;19251;49.484;8.260;2023-07-20T02:35:48;21.30;12.00
32895;DHT22;19251;49.484;8.260;2023-07-20T02:40:52;21.10;11.20
32895;DHT22;19251;49.484;8.260;2023-07-20T02:45:54;20.90;12.00
32895;DHT22;19251;49.484;8.260;2023-07-20T02:50:56;20.60;12.50
32895;DHT22;19251;49.484;8.260;2023-07-20T02:55:58;20.60;12.80
32895;DHT22;19251;49.484;8.260;2023-07-20T03:01:01;20.50;13.00
32895;DHT22;19251;49.484;8.260;2023-07-20T03:06:03;20.70;13.60
32895;DHT22;19251;49.484;8.260;2023-07-20T03:11:05;20.30;13.80
32895;DHT22;19251;49.484;8.260;2023-07-20T03:16:11;20.00;13.40
32895;DHT22;19251;49.484;8.260;2023-07-20T03:21:15;20.00;14.00
32895;DHT22;19251;49.484;8.260;2023-07-20T03:26:18;19.90;14.20
32895;DHT22;19251;49.484;8.260;2023-07-20T03:31:20;19.90;14.50
32895;DHT22;19251;49.484;8.260;2023-07-20T03:36:22;19.60;14.60
32895;DHT22;19251;49.484;8.260;2023-07-20T03:41:25;19.80;15.00
32895;DHT22;19251;49.484;8.260;2023-07-20T03:46:27;19.40;14.30
32895;DHT22;19251;49.484;8.260;2023-07-20T03:51:29;19.70;15.30
32895;DHT22;19251;49.484;8.260;2023-07-20T03:56:32;19.50;15.30
32895;DHT22;19251;49.484;8.260;2023-07-20T04:01:37;19.50;15.50
32895;DHT22;19251;49.484;8.260;2023-07-20T04:06:42;19.60;15.70
32895;DHT22;19251;49.484;8.260;2023-07-20T04:11:46;19.20;15.30
32895;DHT22;19251;49.484;8.260;2023-07-20T04:16:48;19.50;15.60
32895;DHT22;19251;49.484;8.260;2023-07-20T04:21:50;19.40;15.80
32895;DHT22;19251;49.484;8.260;2023-07-20T04:26:53;19.60;16.40
32895;DHT22;19251;49.484;8.260;2023-07-20T04:31:55;19.50;15.60
32895;DHT22;19251;49.484;8.260;2023-07-20T04:36:57;19.80;16.10
32895;DHT22;19251;49.484;8.260;2023-07-20T04:42:01;19.60;15.80
32895;DHT22;19251;49.484;8.260;2023-07-20T04:47:04;19.60;16.90
32895;DHT22;19251;49.484;8.260;2023-07-20T04:52:07;19.80;17.10
32895;DHT22;19251;49.484;8.260;2023-07-20T04:57:12;19.60;17.40
32895;DHT22;19251;49.484;8.260;2023-07-20T05:02:17;19.20;17.40
32895;DHT22;19251;49.484;8.260;2023-07-20T05:07:19;19.50;17.70
32895;DHT22;19251;49.484;8.260;2023-07-20T05:12:21;19.60;18.10
32895;DHT22;19251;49.484;8.260;2023-07-20T05:17:24;19.70;18.40
32895;DHT22;19251;49.484;8.260;2023-07-20T05:22:27;19.80;17.80
32895;DHT22;19251;49.484;8.260;2023-07-20T05:27:29;19.50;18.30
32895;DHT22;19251;49.484;8.260;2023-07-20T05:32:31;19.70;18.60
32895;DHT22;19251;49.484;8.260;2023-07-20T05:37:33;20.10;18.90
32895;DHT22;19251;49.484;8.260;2023-07-20T05:42:36;20.30;18.20
32895;DHT22;19251;49.484;8.260;2023-07-20T05:47:38;20.60;18.40
32895;DHT22;19251;49.484;8.260;2023-07-20T05:52:40;20.60;19.10
32895;DHT22;19251;49.484;8.260;2023-07-20T05:57:42;20.70;19.10
32895;DHT22;19251;49.484;8.260;2023-07-20T06:02:45;21.20;18.10
32895;DHT22;19251;49.484;8.260;2023-07-20T06:07:50;21.30;17.60
32895;DHT22;19251;49.484;8.260;2023-07-20T06:12:52;21.20;18.10
32895;DHT22;19251;49.484;8.260;2023-07-20T06:17:55;21.40;18.40
32895;DHT22;19251;49.484;8.260;2023-07-20T06:23:00;21.50;17.90
32895;DHT22;19251;49.484;8.260;2023-07-20T06:28:02;21.80;17.80
32895;DHT22;19251;49.484;8.260;2023-07-20T06:33:07;22.20;17.50
32895;DHT22;19251;49.484;8.260;2023-07-20T06:38:09;22.70;16.20
32895;DHT22;19251;49.484;8.260;2023-07-20T06:43:15;22.60;16.10
32895;DHT22;19251;49.484;8.260;2023-07-20T06:48:21;23.00;15.50
32895;DHT22;19251;49.484;8.260;2023-07-20T06:53:23;23.20;15.30
32895;DHT22;19251;49.484;8.260;2023-07-20T06:58:25;23.70;15.00
32895;DHT22;19251;49.484;8.260;2023-07-20T07:03:28;23.70;14.10
32895;DHT22;19251;49.484;8.260;2023-07-20T07:08:30;24.10;13.90
32895;DHT22;19251;49.484;8.260;2023-07-20T07:13:32;24.40;13.30
32895;DHT22;19251;49.484;8.260;2023-07-20T07:18:36;24.70;11.80
32895;DHT22;19251;49.484;8.260;2023-07-20T07:23:45;25.10;12.70
32895;DHT22;19251;49.484;8.260;2023-07-20T07:28:48;25.40;11.50
32895;DHT22;19251;49.484;8.260;2023-07-20T07:33:50;25.70;10.50
32895;DHT22;19251;49.484;8.260;2023-07-20T07:38:52;25.90;10.00
32895;DHT22;19251;49.484;8.260;2023-07-20T07:43:57;25.90;9.20
32895;DHT22;19251;49.484;8.260;2023-07-20T07:48:59;25.80;9.30
32895;DHT22;19251;49.484;8.260;2023-07-20T07:54:01;25.60;9.30
32895;DHT22;19251;49.484;8.260;2023-07-20T07:59:04;25.90;9.40
32895;DHT22;19251;49.484;8.260;2023-07-20T08:04:06;26.10;8.90
32895;DHT22;19251;49.484;8.260;2023-07-20T08:09:08;26.20;7.90
32895;DHT22;19251;49.484;8.260;2023-07-20T08:14:11;26.40;8.20
32895;DHT22;19251;49.484;8.260;2023-07-20T08:19:13;26.40;7.50
32895;DHT22;19251;49.484;8.260;2023-07-20T08:24:16;26.90;8.00
32895;DHT22;19251;49.484;8.260;2023-07-20T08:29:18;27.00;6.40
32895;DHT22;19251;49.484;8.260;2023-07-20T08:34:20;27.20;7.40
32895;DHT22;19251;49.484;8.260;2023-07-20T08:39:32;27.30;5.60
32895;DHT22;19251;49.484;8.260;2023-07-20T08:44:38;27.30;5.00
32895;DHT22;19251;49.484;8.260;2023-07-20T08:49:41;27.50;4.80
32895;DHT22;19251;49.484;8.260;2023-07-20T08:54:43;27.50;3.40
32895;DHT22;19251;49.484;8.260;2023-07-20T08:59:45;27.60;4.80
32895;DHT22;19251;49.484;8.260;2023-07-20T09:04:48;27.70;4.90
32895;DHT22;19251;49.484;8.260;2023-07-20T09:09:50;27.80;3.70
32895;DHT22;19251;49.484;8.260;2023-07-20T09:14:53;27.70;2.40
32895;DHT22;19251;49.484;8.260;2023-07-20T09:19:55;27.60;3.40
32895;DHT22;19251;49.484;8.260;2023-07-20T09:24:57;27.70;3.20
32895;DHT22;19251;49.484;8.260;2023-07-20T09:29:59;28.00;3.40
32895;DHT22;19251;49.484;8.260;2023-07-20T09:35:02;28.10;3.00
32895;DHT22;19251;49.484;8.260;2023-07-20T09:40:07;27.90;2.80
32895;DHT22;19251;49.484;8.260;2023-07-20T09:45:14;28.20;2.70
32895;DHT22;19251;49.484;8.260;2023-07-20T09:50:16;28.30;2.00
32895;DHT22;19251;49.484;8.260;2023-07-20T09:55:22;27.90;1.80
32895;DHT22;19251;49.484;8.260;2023-07-20T10:00:26;28.30;1.20
32895;DHT22;19251;49.484;8.260;2023-07-20T10:05:36;28.20;1.20
32895;DHT22;19251;49.484;8.260;2023-07-20T10:10:41;28.10;1.00
32895;DHT22;19251;49.484;8.260;2023-07-20T10:15:49;28.10;1.10
32895;DHT22;19251;49.484;8.260;2023-07-20T10:20:54;28.30;1.20
32895;DHT22;19251;49.484;8.260;2023-07-20T10:26:01;28.50;1.00
32895;DHT22;19251;49.484;8.260;2023-07-20T10:31:08;28.90;1.40
32895;DHT22;19251;49.484;8.260;2023-07-20T10:36:11;28.80;1.00
32895;DHT22;19251;49.484;8.260;2023-07-20T10:41:41;28.80;1.00
32895;DHT22;19251;49.484;8.260;2023-07-20T10:46:44;28.90;1.00
32895;DHT22;19251;49.484;8.260;2023-07-20T10:51:48;28.80;1.00
32895;DHT22;19251;49.484;8.260;2023-07-20T10:56:51;28.80;1.00
32895;DHT22;19251;49.484;8.260;2023-07-20T11:01:56;28.90;1.00
32895;DHT22;19251;49.484;8.260;2023-07-20T11:07:02;29.10;1.00
32895;DHT22;19251;49.484;8.260;2023-07-20T11:12:12;29.40;1.00
32895;DHT22;19251;49.484;8.260;2023-07-20T11:17:16;29.90;1.00
32895;DHT22;19251;49.484;8.260;2023-07-20T11:22:22;30.20;1.00
32895;DHT22;19251;49.484;8.260;2023-07-20T11:27:24;30.40;1.00
32895;DHT22;19251;49.484;8.260;2023-07-20T11:32:26;30.80;1.00
32895;DHT22;19251;49.484;8.260;2023-07-20T11:37:28;30.40;1.00
32895;DHT22;19251;49.484;8.260;2023-07-20T11:42:32;30.40;1.00
32895;DHT22;19251;49.484;8.260;2023-07-20T11:47:41;30.50;1.00
32895;DHT22;19251;49.484;8.260;2023-07-20T11:52:44;29.20;1.00
32895;DHT22;19251;49.484;8.260;2023-07-20T11:58:06;30.30;1.00
32895;DHT22;19251;49.484;8.260;2023-07-20T12:03:09;30.10;1.00
32895;DHT22;19251;49.484;8.260;2023-07-20T12:08:15;29.90;1.00
32895;DHT22;19251;49.484;8.260;2023-07-20T12:13:19;29.90;1.00
32895;DHT22;19251;49.484;8.260;2023-07-20T12:18:23;30.00;1.00
32895;DHT22;19251;49.484;8.260;2023-07-20T12:23:25;30.10;1.00
32895;DHT22;19251;49.484;8.260;2023-07-20T12:28:27;30.20;1.00
32895;DHT22;19251;49.484;8.260;2023-07-20T12:33:29;30.30;1.00
32895;DHT22;19251;49.484;8.260;2023-07-20T12:38:31;30.30;1.00
32895;DHT22;19251;49.484;8.260;2023-07-20T12:43:34;30.30;1.00
32895;DHT22;19251;49.484;8.260;2023-07-20T12:48:36;30.20;1.00
32895;DHT22;19251;49.484;8.260;2023-07-20T12:53:44;30.20;1.00
32895;DHT22;19251;49.484;8.260;2023-07-20T12:58:46;30.10;1.00
32895;DHT22;19251;49.484;8.260;2023-07-20T13:03:51;30.20;1.00
32895;DHT22;19251;49.484;8.260;2023-07-20T13:08:56;30.20;1.00
32895;DHT22;19251;49.484;8.260;2023-07-20T13:14:00;30.60;1.00
32895;DHT22;19251;49.484;8.260;2023-07-20T13:19:02;31.20;1.00
32895;DHT22;19251;49.484;8.260;2023-07-20T13:24:05;31.70;1.00
32895;DHT22;19251;49.484;8.260;2023-07-20T13:29:07;32.10;1.00
32895;DHT22;19251;49.484;8.260;2023-07-20T13:34:10;32.30;1.00
32895;DHT22;19251;49.484;8.260;2023-07-20T13:39:12;32.60;1.00
32895;DHT22;19251;49.484;8.260;2023-07-20T13:44:14;33.00;1.00
32895;DHT22;19251;49.484;8.260;2023-07-20T13:49:18;33.20;1.00
32895;DHT22;19251;49.484;8.260;2023-07-20T13:54:25;33.10;1.00
32895;DHT22;19251;49.484;8.260;2023-07-20T13:59:28;32.80;1.00
32895;DHT22;19251;49.484;8.260;2023-07-20T14:04:31;32.60;1.00
32895;DHT22;19251;49.484;8.260;2023-07-20T14:09:33;32.50;1.00
32895;DHT22;19251;49.484;8.260;2023-07-20T14:14:35;32.80;1.00
32895;DHT22;19251;49.484;8.260;2023-07-20T14:19:38;33.00;1.00
32895;DHT22;19251;49.484;8.260;2023-07-20T14:24:40;33.00;1.00
32895;DHT22;19251;49.484;8.260;2023-07-20T14:29:42;33.10;1.00
32895;DHT22;19251;49.484;8.260;2023-07-20T14:34:45;33.00;1.00
32895;DHT22;19251;49.484;8.260;2023-07-20T14:39:48;33.10;1.00
32895;DHT22;19251;49.484;8.260;2023-07-20T14:44:50;33.20;1.00
32895;DHT22;19251;49.484;8.260;2023-07-20T14:49:53;33.20;1.00
32895;DHT22;19251;49.484;8.260;2023-07-20T14:54:55;32.80;1.00
32895;DHT22;19251;49.484;8.260;2023-07-20T14:59:57;32.80;1.00
32895;DHT22;19251;49.484;8.260;2023-07-20T15:05:00;32.50;1.00
32895;DHT22;19251;49.484;8.260;2023-07-20T15:10:02;32.30;1.00
32895;DHT22;19251;49.484;8.260;2023-07-20T15:15:06;32.20;1.00
32895;DHT22;19251;49.484;8.260;2023-07-20T15:20:10;32.00;1.00
32895;DHT22;19251;49.484;8.260;2023-07-20T15:25:13;32.00;1.00
32895;DHT22;19251;49.484;8.260;2023-07-20T15:30:15;32.20;1.00
32895;DHT22;19251;49.484;8.260;2023-07-20T15:35:37;32.50;1.00
32895;DHT22;19251;49.484;8.260;2023-07-20T15:40:43;33.10;1.00
32895;DHT22;19251;49.484;8.260;2023-07-20T15:45:47;33.90;1.00
32895;DHT22;19251;49.484;8.260;2023-07-20T15:50:53;35.10;1.00
32895;DHT22;19251;49.484;8.260;2023-07-20T15:55:55;36.40;1.00
32895;DHT22;19251;49.484;8.260;2023-07-20T16:00:58;36.90;1.00
32895;DHT22;19251;49.484;8.260;2023-07-20T16:06:01;36.90;1.00
32895;DHT22;19251;49.484;8.260;2023-07-20T16:11:06;36.60;1.00
32895;DHT22;19251;49.484;8.260;2023-07-20T16:16:08;35.90;1.00
32895;DHT22;19251;49.484;8.260;2023-07-20T16:21:10;35.10;1.00
32895;DHT22;19251;49.484;8.260;2023-07-20T16:26:13;34.70;1.00
32895;DHT22;19251;49.484;8.260;2023-07-20T16:31:16;34.50;1.00
32895;DHT22;19251;49.484;8.260;2023-07-20T16:36:19;34.50;1.00
32895;DHT22;19251;49.484;8.260;2023-07-20T16:41:21;34.60;1.00
32895;DHT22;19251;49.484;8.260;2023-07-20T16:46:43;34.30;1.00
32895;DHT22;19251;49.484;8.260;2023-07-20T16:51:49;34.10;1.00
32895;DHT22;19251;49.484;8.260;2023-07-20T16:56:52;33.80;1.00
32895;DHT22;19251;49.484;8.260;2023-07-20T17:01:54;33.40;1.00
32895;DHT22;19251;49.484;8.260;2023-07-20T17:06:56;33.00;1.00
32895;DHT22;19251;49.484;8.260;2023-07-20T17:12:00;32.50;1.00
32895;DHT22;19251;49.484;8.260;2023-07-20T17:17:02;32.00;1.00
32895;DHT22;19251;49.484;8.260;2023-07-20T17:22:05;31.50;1.00
32895;DHT22;19251;49.484;8.260;2023-07-20T17:27:07;31.10;1.00
32895;DHT22;19251;49.484;8.260;2023-07-20T17:32:12;30.70;1.00
32895;DHT22;19251;49.484;8.260;2023-07-20T17:37:14;30.20;1.00
32895;DHT22;19251;49.484;8.260;2023-07-20T17:42:19;30.30;1.00
32895;DHT22;19251;49.484;8.260;2023-07-20T17:47:24;30.10;1.00
32895;DHT22;19251;49.484;8.260;2023-07-20T17:52:26;29.90;1.00
32895;DHT22;19251;49.484;8.260;2023-07-20T17:57:28;29.80;1.00
32895;DHT22;19251;49.484;8.260;2023-07-20T18:02:31;29.60;1.00
32895;DHT22;19251;49.484;8.260;2023-07-20T18:07:33;29.40;1.00
32895;DHT22;19251;49.484;8.260;2023-07-20T18:12:36;28.80;1.00
32895;DHT22;19251;49.484;8.260;2023-07-20T18:17:38;29.20;1.00
32895;DHT22;19251;49.484;8.260;2023-07-20T18:22:40;28.90;1.40
32895;DHT22;19251;49.484;8.260;2023-07-20T18:27:43;28.70;1.50
32895;DHT22;19251;49.484;8.260;2023-07-20T18:32:45;28.60;1.40
32895;DHT22;19251;49.484;8.260;2023-07-20T18:37:48;28.30;1.20
32895;DHT22;19251;49.484;8.260;2023-07-20T18:42:53;28.10;1.10
32895;DHT22;19251;49.484;8.260;2023-07-20T18:47:55;27.90;1.00
32895;DHT22;19251;49.484;8.260;2023-07-20T18:52:57;27.70;1.60
32895;DHT22;19251;49.484;8.260;2023-07-20T18:58:02;27.50;1.80
32895;DHT22;19251;49.484;8.260;2023-07-20T19:03:04;27.50;2.30
32895;DHT22;19251;49.484;8.260;2023-07-20T19:08:07;27.40;2.80
32895;DHT22;19251;49.484;8.260;2023-07-20T19:13:10;27.20;3.20
32895;DHT22;19251;49.484;8.260;2023-07-20T19:18:12;27.00;3.30
32895;DHT22;19251;49.484;8.260;2023-07-20T19:23:14;27.00;3.70
32895;DHT22;19251;49.484;8.260;2023-07-20T19:28:16;26.70;3.80
32895;DHT22;19251;49.484;8.260;2023-07-20T19:33:18;26.70;4.10
32895;DHT22;19251;49.484;8.260;2023-07-20T19:38:24;26.40;4.30
32895;DHT22;19251;49.484;8.260;2023-07-20T19:43:26;26.40;4.60
32895;DHT22;19251;49.484;8.260;2023-07-20T19:48:28;26.30;4.70
32895;DHT22;19251;49.484;8.260;2023-07-20T19:53:31;26.10;4.90
32895;DHT22;19251;49.484;8.260;2023-07-20T19:58:34;26.00;5.10
32895;DHT22;19251;49.484;8.260;2023-07-20T20:03:38;25.70;5.60
32895;DHT22;19251;49.484;8.260;2023-07-20T20:08:42;25.80;6.10
32895;DHT22;19251;49.484;8.260;2023-07-20T20:13:44;25.80;6.30
32895;DHT22;19251;49.484;8.260;2023-07-20T20:18:46;25.50;7.10
32895;DHT22;19251;49.484;8.260;2023-07-20T20:23:49;25.40;6.60
32895;DHT22;19251;49.484;8.260;2023-07-20T20:28:51;25.30;6.90
32895;DHT22;19251;49.484;8.260;2023-07-20T20:33:54;25.00;7.00
32895;DHT22;19251;49.484;8.260;2023-07-20T20:38:56;25.00;7.40
32895;DHT22;19251;49.484;8.260;2023-07-20T20:43:58;25.00;7.70
32895;DHT22;19251;49.484;8.260;2023-07-20T20:49:00;25.00;7.50
32895;DHT22;19251;49.484;8.260;2023-07-20T20:54:05;24.60;7.80
32895;DHT22;19251;49.484;8.260;2023-07-20T20:59:08;24.70;8.30
32895;DHT22;19251;49.484;8.260;2023-07-20T21:04:10;24.60;8.50
32895;DHT22;19251;49.484;8.260;2023-07-20T21:09:12;24.20;8.40
32895;DHT22;19251;49.484;8.260;2023-07-20T21:14:15;24.40;8.60
32895;DHT22;19251;49.484;8.260;2023-07-20T21:19:17;24.50;9.20
32895;DHT22;19251;49.484;8.260;2023-07-20T21:24:19;24.30;9.50
32895;DHT22;19251;49.484;8.260;2023-07-20T21:29:21;24.10;9.50
32895;DHT22;19251;49.484;8.260;2023-07-20T21:34:23;24.20;9.80
32895;DHT22;19251;49.484;8.260;2023-07-20T21:39:25;24.20;10.00
32895;DHT22;19251;49.484;8.260;2023-07-20T21:44:27;24.00;10.20
32895;DHT22;19251;49.484;8.260;2023-07-20T21:49:31;24.00;10.30
32895;DHT22;19251;49.484;8.260;2023-07-20T21:54:33;23.90;10.50
32895;DHT22;19251;49.484;8.260;2023-07-20T21:59:35;23.70;10.20
32895;DHT22;19251;49.484;8.260;2023-07-20T22:04:38;23.80;10.30
32895;DHT22;19251;49.484;8.260;2023-07-20T22:09:41;23.70;10.30
32895;DHT22;19251;49.484;8.260;2023-07-20T22:14:45;23.70;10.40
32895;DHT22;19251;49.484;8.260;2023-07-20T22:19:48;23.60;10.60
32895;DHT22;19251;49.484;8.260;2023-07-20T22:24:50;23.50;10.70
32895;DHT22;19251;49.484;8.260;2023-07-20T22:29:54;23.40;10.80
32895;DHT22;19251;49.484;8.260;2023-07-20T22:34:56;23.30;10.90
32895;DHT22;19251;49.484;8.260;2023-07-20T22:39:59;23.30;10.30
32895;DHT22;19251;49.484;8.260;2023-07-20T22:45:02;23.20;11.20
32895;DHT22;19251;49.484;8.260;2023-07-20T22:50:07;23.30;11.30
32895;DHT22;19251;49.484;8.260;2023-07-20T22:55:10;23.20;11.20
32895;DHT22;19251;49.484;8.260;2023-07-20T23:00:13;23.30;11.30
32895;DHT22;19251;49.484;8.260;2023-07-20T23:05:16;23.10;11.20
32895;DHT22;19251;49.484;8.260;2023-07-20T23:10:18;23.00;11.10
32895;DHT22;19251;49.484;8.260;2023-07-20T23:15:20;23.00;11.30
32895;DHT22;19251;49.484;8.260;2023-07-20T23:20:23;23.00;11.40
32895;DHT22;19251;49.484;8.260;2023-07-20T23:25:31;22.70;11.40
32895;DHT22;19251;49.484;8.260;2023-07-20T23:30:33;22.80;11.70
32895;DHT22;19251;49.484;8.260;2023-07-20T23:35:35;22.90;11.90
32895;DHT22;19251;49.484;8.260;2023-07-20T23:40:43;23.00;12.00
32895;DHT22;19251;49.484;8.260;2023-07-20T23:45:46;22.80;12.00
32895;DHT22;19251;49.484;8.260;2023-07-20T23:50:48;22.70;12.10
32895;DHT22;19251;49.484;8.260;2023-07-20T23:55:50;22.70;12.80
